createdAt,value
2022-10-02T00:03:16.721Z,9.00
2022-10-02T00:07:18.384Z,9.10
2022-10-02T00:11:25.337Z,9.20
2022-10-02T00:15:31.359Z,9.30
2022-10-02T00:19:28.653Z,9.30
2022-10-02T00:23:41.689Z,9.50
2022-10-02T00:27:48.400Z,9.50
2022-10-02T00:32:11.507Z,9.50
2022-10-02T00:36:54.499Z,9.60
2022-10-02T00:41:15.258Z,9.80
2022-10-02T00:45:56.314Z,9.90
2022-10-02T00:50:40.715Z,10.00
2022-10-02T00:55:28.943Z,10.10
2022-10-02T00:59:42.982Z,10.20
2022-10-02T01:03:53.407Z,10.20
2022-10-02T01:07:54.491Z,10.40
2022-10-02T01:11:52.585Z,10.60
2022-10-02T01:16:00.724Z,10.60
2022-10-02T01:20:05.033Z,10.70
2022-10-02T01:24:22.771Z,10.80
2022-10-02T01:28:20.499Z,10.90
2022-10-02T01:32:18.751Z,10.90
2022-10-02T01:36:17.222Z,10.90
2022-10-02T01:40:25.395Z,10.90
2022-10-02T01:44:24.890Z,10.90
2022-10-02T01:48:37.267Z,10.90
2022-10-02T01:53:12.526Z,10.90
2022-10-02T01:57:32.270Z,10.80
2022-10-02T02:01:47.451Z,11.00
2022-10-02T02:06:00.477Z,10.90
2022-10-02T02:10:14.105Z,10.80
2022-10-02T02:14:51.838Z,10.90
2022-10-02T02:18:58.448Z,10.80
2022-10-02T02:23:04.195Z,10.80
2022-10-02T02:27:06.400Z,10.80
2022-10-02T02:31:08.399Z,10.90
2022-10-02T02:35:17.589Z,10.90
2022-10-02T02:39:28.826Z,10.90
2022-10-02T02:43:39.503Z,10.80
2022-10-02T02:47:55.994Z,10.90
2022-10-02T02:51:57.246Z,10.80
2022-10-02T02:55:58.343Z,10.80
2022-10-02T03:00:00.103Z,10.80
2022-10-02T03:03:57.382Z,10.80
2022-10-02T03:08:05.189Z,10.80
2022-10-02T03:12:17.162Z,10.70
2022-10-02T03:16:41.572Z,10.80
2022-10-02T03:20:57.359Z,10.80
2022-10-02T03:24:54.278Z,10.80
2022-10-02T03:28:57.475Z,10.70
2022-10-02T03:33:01.155Z,10.70
2022-10-02T03:36:58.382Z,10.70
2022-10-02T03:40:58.480Z,10.70
2022-10-02T03:44:55.446Z,10.70
2022-10-02T03:48:52.570Z,10.70
2022-10-02T03:52:53.092Z,10.70
2022-10-02T03:57:03.587Z,10.70
2022-10-02T04:01:17.179Z,10.70
2022-10-02T04:05:33.534Z,10.70
2022-10-02T04:09:59.496Z,10.70
2022-10-02T04:14:30.363Z,10.70
2022-10-02T04:19:02.136Z,10.70
2022-10-02T04:23:21.598Z,10.70
2022-10-02T04:27:35.084Z,10.80
2022-10-02T04:31:32.360Z,10.80
2022-10-02T04:35:47.228Z,10.90
2022-10-02T04:40:22.161Z,10.90
2022-10-02T04:44:55.241Z,11.10
2022-10-02T04:48:58.110Z,11.20
2022-10-02T04:53:28.282Z,11.30
2022-10-02T04:57:28.238Z,11.40
2022-10-02T05:02:02.364Z,11.30
2022-10-02T05:06:24.478Z,11.30
2022-10-02T05:10:58.603Z,11.40
2022-10-02T05:15:35.000Z,11.40
2022-10-02T05:19:44.077Z,11.40
2022-10-02T05:24:05.363Z,11.30
2022-10-02T05:28:17.191Z,11.40
2022-10-02T05:32:36.285Z,11.30
2022-10-02T05:36:59.697Z,11.30
2022-10-02T05:41:11.902Z,11.40
2022-10-02T05:45:44.265Z,11.50
2022-10-02T05:49:59.516Z,11.50
2022-10-02T05:54:11.104Z,11.50
2022-10-02T05:58:34.726Z,11.50
2022-10-02T06:02:52.143Z,11.50
2022-10-02T06:06:51.866Z,11.50
2022-10-02T06:10:59.273Z,11.60
2022-10-02T06:15:16.871Z,11.60
2022-10-02T06:19:27.296Z,11.70
2022-10-02T06:23:42.144Z,11.70
2022-10-02T06:28:06.214Z,11.70
2022-10-02T06:32:45.155Z,11.80
2022-10-02T06:37:25.894Z,11.80
2022-10-02T06:41:42.813Z,11.80
2022-10-02T06:46:22.980Z,11.80
2022-10-02T06:50:51.591Z,11.90
2022-10-02T06:55:32.956Z,12.00
2022-10-02T07:00:18.226Z,12.00
2022-10-02T07:05:01.405Z,12.00
2022-10-02T07:09:45.351Z,12.20
2022-10-02T07:14:22.711Z,12.10
2022-10-02T07:18:45.283Z,12.20
2022-10-02T07:22:59.086Z,12.30
2022-10-02T07:27:33.053Z,12.40
2022-10-02T07:31:48.021Z,12.40
2022-10-02T07:36:04.106Z,12.40
2022-10-02T07:40:22.036Z,12.50
2022-10-02T07:44:47.866Z,12.50
2022-10-02T07:49:08.801Z,12.50
2022-10-02T07:53:10.932Z,12.60
2022-10-02T07:57:39.624Z,12.70
2022-10-02T08:01:41.780Z,12.70
2022-10-02T08:05:47.864Z,12.70
2022-10-02T08:09:52.128Z,12.80
2022-10-02T08:14:21.836Z,12.90
2022-10-02T08:18:43.577Z,12.90
2022-10-02T08:22:48.442Z,13.00
2022-10-02T08:26:54.278Z,13.00
2022-10-02T08:30:52.678Z,13.10
2022-10-02T08:34:57.160Z,13.20
2022-10-02T08:39:18.609Z,13.20
2022-10-02T08:43:37.714Z,13.40
2022-10-02T08:48:24.177Z,13.60
2022-10-02T08:52:59.887Z,13.70
2022-10-02T08:57:13.987Z,13.80
2022-10-02T09:01:14.627Z,13.70
2022-10-02T09:05:43.912Z,13.50
2022-10-02T09:09:46.447Z,13.40
2022-10-02T09:14:45.876Z,13.30
2022-10-02T09:19:23.109Z,13.10
2022-10-02T09:24:17.316Z,13.10
2022-10-02T09:29:01.046Z,13.00
2022-10-02T09:33:39.855Z,12.90
2022-10-02T09:38:39.139Z,12.90
2022-10-02T09:42:57.840Z,12.90
2022-10-02T09:47:35.639Z,12.80
2022-10-02T09:52:40.597Z,12.70
2022-10-02T09:57:41.813Z,12.70
2022-10-02T10:02:00.145Z,12.80
2022-10-02T10:06:23.383Z,12.70
2022-10-02T10:10:46.727Z,12.80
2022-10-02T10:15:09.252Z,12.80
2022-10-02T10:19:42.294Z,12.70
2022-10-02T10:24:00.891Z,12.50
2022-10-02T10:28:44.753Z,12.40
2022-10-02T10:33:37.181Z,12.30
2022-10-02T10:38:12.247Z,12.40
2022-10-02T10:43:07.033Z,12.40
2022-10-02T10:48:02.404Z,12.50
2022-10-02T10:52:25.517Z,12.50
2022-10-02T10:56:47.372Z,12.50
2022-10-02T11:01:15.591Z,12.50
2022-10-02T11:05:30.478Z,12.70
2022-10-02T11:09:39.189Z,12.70
2022-10-02T11:14:16.905Z,12.60
2022-10-02T11:18:39.278Z,12.40
2022-10-02T11:23:09.213Z,12.30
2022-10-02T11:27:30.321Z,12.40
2022-10-02T11:32:00.483Z,12.40
2022-10-02T11:36:18.686Z,12.50
2022-10-02T11:40:58.404Z,12.50
2022-10-02T11:45:32.850Z,12.60
2022-10-02T11:50:01.353Z,12.60
2022-10-02T11:54:33.265Z,12.70
2022-10-02T11:59:18.430Z,12.90
2022-10-02T12:03:45.040Z,12.80
2022-10-02T12:08:10.823Z,12.90
2022-10-02T12:12:51.703Z,12.90
2022-10-02T12:17:10.975Z,12.90
2022-10-02T12:22:22.900Z,12.80
2022-10-02T12:27:09.246Z,12.70
2022-10-02T12:31:33.028Z,12.60
2022-10-02T12:35:48.139Z,12.50
2022-10-02T12:40:14.686Z,12.30
2022-10-02T12:44:35.891Z,12.20
2022-10-02T12:49:20.268Z,12.30
2022-10-02T12:54:03.946Z,12.40
2022-10-02T12:58:31.761Z,12.50
2022-10-02T13:03:02.131Z,12.40
2022-10-02T13:07:17.050Z,12.50
2022-10-02T13:11:55.719Z,12.40
2022-10-02T13:16:34.687Z,12.60
2022-10-02T13:20:44.800Z,12.70
2022-10-02T13:25:20.841Z,12.90
2022-10-02T13:30:02.903Z,12.90
2022-10-02T13:34:11.440Z,12.90
2022-10-02T13:38:41.708Z,12.80
2022-10-02T13:42:56.810Z,12.80
2022-10-02T13:47:27.672Z,12.90
2022-10-02T13:51:50.519Z,12.90
2022-10-02T13:56:15.782Z,12.90
2022-10-02T14:00:37.478Z,12.90
2022-10-02T14:05:14.911Z,12.80
2022-10-02T14:09:50.305Z,12.60
2022-10-02T14:14:42.444Z,12.50
2022-10-02T14:19:24.710Z,12.50
2022-10-02T14:23:52.610Z,12.40
2022-10-02T14:28:15.919Z,12.40
2022-10-02T14:32:38.870Z,12.40
2022-10-02T14:37:23.268Z,12.30
2022-10-02T14:41:57.178Z,12.30
2022-10-02T14:46:23.163Z,12.30
2022-10-02T14:51:08.863Z,12.30
2022-10-02T14:55:53.927Z,12.20
2022-10-02T15:00:13.851Z,12.10
2022-10-02T15:04:55.787Z,12.20
2022-10-02T15:09:07.111Z,12.20
2022-10-02T15:13:24.397Z,12.10
2022-10-02T15:18:20.192Z,12.10
2022-10-02T15:22:31.736Z,12.20
2022-10-02T15:26:46.735Z,12.30
2022-10-02T15:30:59.808Z,12.30
2022-10-02T15:35:05.680Z,12.30
2022-10-02T15:44:27.839Z,12.30
2022-10-02T15:49:02.546Z,12.40
2022-10-02T15:53:54.718Z,12.30
2022-10-02T15:58:26.395Z,12.30
2022-10-02T16:02:57.457Z,12.30
2022-10-02T16:07:45.275Z,12.20
2022-10-02T16:12:39.961Z,12.10
2022-10-02T16:16:37.334Z,12.00
2022-10-02T16:20:49.473Z,12.00
2022-10-02T16:25:07.544Z,11.90
2022-10-02T16:29:23.190Z,11.80
2022-10-02T16:34:00.516Z,11.80
2022-10-02T16:38:43.319Z,11.70
2022-10-02T16:42:56.763Z,11.70
2022-10-02T16:47:02.587Z,11.60
2022-10-02T16:51:16.795Z,11.60
2022-10-02T16:55:59.406Z,11.70
2022-10-02T17:00:32.256Z,11.60
2022-10-02T17:04:41.519Z,11.60
2022-10-02T17:08:44.267Z,11.60
2022-10-02T17:13:26.685Z,11.50
2022-10-02T17:17:47.816Z,11.40
2022-10-02T17:22:27.091Z,11.40
2022-10-02T17:26:40.813Z,11.30
2022-10-02T17:31:16.806Z,11.30
2022-10-02T17:35:38.281Z,11.30
2022-10-02T17:40:05.347Z,11.30
2022-10-02T17:44:12.307Z,11.30
2022-10-02T17:48:38.192Z,11.30
2022-10-02T17:53:02.227Z,11.20
2022-10-02T17:57:46.878Z,11.20
2022-10-02T18:01:59.305Z,11.20
2022-10-02T18:06:48.185Z,11.20
2022-10-02T18:11:09.830Z,11.20
2022-10-02T18:15:48.893Z,11.20
2022-10-02T18:20:19.328Z,11.20
2022-10-02T18:25:14.369Z,11.30
2022-10-02T18:29:46.742Z,11.30
2022-10-02T18:34:31.936Z,11.30
2022-10-02T18:38:56.276Z,11.30
2022-10-02T18:43:14.872Z,11.40
2022-10-02T18:47:35.134Z,11.40
2022-10-02T18:52:09.334Z,11.30
2022-10-02T18:56:14.950Z,11.40
2022-10-02T19:00:24.693Z,11.40
2022-10-02T19:05:04.628Z,11.30
2022-10-02T19:09:07.723Z,11.30
2022-10-02T19:13:17.932Z,11.30
2022-10-02T19:17:24.141Z,11.20
2022-10-02T19:21:21.831Z,11.10
2022-10-02T19:25:20.511Z,11.00
2022-10-02T19:29:20.585Z,10.90
2022-10-02T19:33:28.310Z,10.90
2022-10-02T19:37:27.150Z,10.90
2022-10-02T19:41:25.437Z,10.90
2022-10-02T19:45:30.041Z,10.80
2022-10-02T19:49:40.077Z,10.80
2022-10-02T19:53:56.306Z,10.70
2022-10-02T19:58:28.637Z,10.70
2022-10-02T20:02:36.938Z,10.60
2022-10-02T20:06:39.863Z,10.60
2022-10-02T20:10:46.388Z,10.60
2022-10-02T20:14:55.802Z,10.60
2022-10-02T20:18:52.844Z,10.50
2022-10-02T20:23:00.249Z,10.50
2022-10-02T20:27:17.750Z,10.40
2022-10-02T20:31:24.718Z,10.30
2022-10-02T20:35:40.254Z,10.20
2022-10-02T20:40:02.335Z,10.20
2022-10-02T20:44:04.716Z,10.20
2022-10-02T20:49:03.107Z,10.20
2022-10-02T20:53:22.284Z,10.20
2022-10-02T20:58:00.123Z,10.10
2022-10-02T21:02:13.259Z,10.10
2022-10-02T21:06:47.298Z,10.10
2022-10-02T21:11:02.487Z,10.00
2022-10-02T21:15:18.105Z,9.90
2022-10-02T21:19:45.776Z,9.80
2022-10-02T21:24:10.544Z,9.80
2022-10-02T21:28:25.688Z,9.70
2022-10-02T21:32:38.295Z,9.60
2022-10-02T21:36:58.876Z,9.60
2022-10-02T21:41:54.992Z,9.60
2022-10-02T21:46:14.005Z,9.50
2022-10-02T21:50:36.176Z,9.40
2022-10-02T21:55:22.593Z,9.40
2022-10-02T21:59:45.065Z,9.30
2022-10-02T22:04:19.990Z,9.20
2022-10-02T22:08:43.967Z,9.20
2022-10-02T22:13:19.260Z,9.20
2022-10-02T22:17:50.102Z,9.20
2022-10-02T22:22:25.493Z,9.10
2022-10-02T22:26:58.330Z,9.10
2022-10-02T22:30:55.322Z,9.10
2022-10-02T22:35:21.786Z,9.10
2022-10-02T22:39:32.998Z,9.10
2022-10-02T22:44:01.804Z,9.10
2022-10-02T22:48:36.255Z,9.00
2022-10-02T22:52:47.508Z,8.90
2022-10-02T22:57:10.708Z,8.90
2022-10-02T23:01:39.097Z,8.90
2022-10-02T23:05:42.287Z,8.90
2022-10-02T23:10:17.706Z,8.80
2022-10-02T23:14:34.879Z,8.80
2022-10-02T23:18:48.963Z,8.80
2022-10-02T23:23:15.750Z,8.80
2022-10-02T23:27:24.418Z,8.80
2022-10-02T23:31:37.670Z,8.80
2022-10-02T23:35:55.978Z,8.80
2022-10-02T23:40:20.057Z,8.80
2022-10-02T23:44:41.613Z,8.80
2022-10-02T23:48:39.386Z,8.80
2022-10-02T23:53:03.584Z,8.70
2022-10-02T23:57:27.702Z,8.70
